createdAt,value
2023-03-16T00:00:43.911Z,1.23
2023-03-16T00:05:49.491Z,0.98
2023-03-16T00:10:52.127Z,1.01
2023-03-16T00:15:54.954Z,1.04
2023-03-16T00:20:57.991Z,1.22
2023-03-16T00:26:00.721Z,0.90
2023-03-16T00:31:02.944Z,0.83
2023-03-16T00:36:05.025Z,1.02
2023-03-16T00:41:07.435Z,0.90
2023-03-16T00:46:09.856Z,0.90
2023-03-16T00:51:12.543Z,1.08
2023-03-16T00:56:14.464Z,0.91
2023-03-16T01:01:17.360Z,0.91
2023-03-16T01:06:18.862Z,1.05
2023-03-16T01:11:21.468Z,0.91
2023-03-16T01:16:22.891Z,1.09
2023-03-16T01:21:24.290Z,0.76
2023-03-16T01:26:25.634Z,0.77
2023-03-16T01:31:27.072Z,0.67
2023-03-16T01:36:28.468Z,1.14
2023-03-16T01:41:29.871Z,0.89
2023-03-16T01:46:31.574Z,0.88
2023-03-16T01:51:32.997Z,0.90
2023-03-16T01:56:43.062Z,1.18
2023-03-16T02:01:46.258Z,0.93
2023-03-16T02:06:47.668Z,0.94
2023-03-16T02:11:49.335Z,1.11
2023-03-16T02:16:52.653Z,1.13
2023-03-16T02:22:00.090Z,0.75
2023-03-16T02:27:03.093Z,0.77
2023-03-16T02:32:05.215Z,1.03
2023-03-16T02:37:07.156Z,0.67
2023-03-16T02:42:12.185Z,0.75
2023-03-16T02:47:17.954Z,0.95
2023-03-16T02:52:19.401Z,0.74
2023-03-16T02:57:20.790Z,0.73
2023-03-16T03:02:22.172Z,0.52
2023-03-16T03:07:23.582Z,0.75
2023-03-16T03:12:25.469Z,0.90
2023-03-16T03:17:26.839Z,0.93
2023-03-16T03:22:28.493Z,0.83
2023-03-16T03:27:29.970Z,0.54
2023-03-16T03:32:31.418Z,0.90
2023-03-16T03:37:32.833Z,0.64
2023-03-16T03:42:34.271Z,0.74
2023-03-16T03:47:35.757Z,0.74
2023-03-16T03:52:37.132Z,0.77
2023-03-16T03:57:38.659Z,0.54
2023-03-16T04:02:40.544Z,0.75
2023-03-16T04:07:42.034Z,0.63
2023-03-16T04:12:43.362Z,0.30
2023-03-16T04:17:44.730Z,0.74
2023-03-16T04:22:47.298Z,0.67
2023-03-16T04:27:48.663Z,0.37
2023-03-16T04:32:50.107Z,0.47
2023-03-16T04:37:51.513Z,0.37
2023-03-16T04:42:52.899Z,0.38
2023-03-16T04:47:54.262Z,0.55
2023-03-16T04:52:55.632Z,0.76
2023-03-16T04:57:57.242Z,0.56
2023-03-16T05:02:58.639Z,0.60
2023-03-16T05:08:00.011Z,0.59
2023-03-16T05:13:01.436Z,0.50
2023-03-16T05:18:03.098Z,0.62
2023-03-16T05:23:04.640Z,0.95
2023-03-16T05:28:06.067Z,0.57
2023-03-16T05:33:07.658Z,0.71
2023-03-16T05:38:09.034Z,0.64
2023-03-16T05:43:10.436Z,0.85
2023-03-16T05:48:11.954Z,0.67
2023-03-16T05:53:13.437Z,0.72
2023-03-16T05:58:14.796Z,0.83
2023-03-16T06:03:16.588Z,0.82
2023-03-16T06:08:17.989Z,1.13
2023-03-16T06:13:19.363Z,1.11
2023-03-16T06:18:20.746Z,1.19
2023-03-16T06:23:22.172Z,1.61
2023-03-16T06:28:23.799Z,1.53
2023-03-16T06:33:25.240Z,1.66
2023-03-16T06:38:26.702Z,2.10
2023-03-16T06:43:28.103Z,2.32
2023-03-16T06:48:29.793Z,2.30
2023-03-16T06:53:31.191Z,2.72
2023-03-16T06:58:32.584Z,2.81
2023-03-16T07:03:34.093Z,2.96
2023-03-16T07:08:35.949Z,3.72
2023-03-16T07:13:37.497Z,3.86
2023-03-16T07:18:39.096Z,4.11
2023-03-16T07:23:40.636Z,4.58
2023-03-16T07:28:42.016Z,4.50
2023-03-16T07:33:43.361Z,4.48
2023-03-16T07:38:44.734Z,5.05
2023-03-16T07:43:46.173Z,5.52
2023-03-16T07:48:47.566Z,5.29
2023-03-16T07:53:49.076Z,5.64
2023-03-16T07:58:50.456Z,6.23
2023-03-16T08:03:52.003Z,5.94
2023-03-16T08:08:54.606Z,6.49
2023-03-16T08:13:55.989Z,6.48
2023-03-16T08:18:57.369Z,6.97
2023-03-16T08:23:58.745Z,6.53
2023-03-16T08:29:00.223Z,6.09
2023-03-16T08:34:01.808Z,6.40
2023-03-16T08:39:07.441Z,6.27
2023-03-16T08:44:09.787Z,6.12
2023-03-16T08:49:11.287Z,6.16
2023-03-16T08:54:12.813Z,6.57
2023-03-16T08:59:26.972Z,7.13
2023-03-16T09:04:30.774Z,7.33
2023-03-16T09:09:32.598Z,7.36
2023-03-16T09:14:34.429Z,7.31
2023-03-16T09:19:53.157Z,7.08
2023-03-16T09:24:55.270Z,6.62
2023-03-16T09:29:56.653Z,7.18
2023-03-16T09:34:58.012Z,7.54
2023-03-16T09:40:10.124Z,8.02
2023-03-16T09:45:26.361Z,7.96
2023-03-16T09:50:35.222Z,7.68
2023-03-16T09:56:05.735Z,7.69
2023-03-16T10:01:25.961Z,7.79
2023-03-16T10:06:30.579Z,8.13
2023-03-16T10:16:59.017Z,8.29
2023-03-16T10:22:02.814Z,8.04
2023-03-16T10:27:06.451Z,8.08
2023-03-16T10:32:15.205Z,8.15
2023-03-16T10:37:16.624Z,8.37
2023-03-16T10:42:20.168Z,8.31
2023-03-16T10:47:28.232Z,8.42
2023-03-16T10:52:33.335Z,8.37
2023-03-16T10:57:35.869Z,8.52
2023-03-16T11:02:37.234Z,8.55
2023-03-16T11:07:38.636Z,8.59
2023-03-16T11:12:40.171Z,8.63
2023-03-16T11:17:41.573Z,8.55
2023-03-16T11:22:46.325Z,8.71
2023-03-16T11:28:08.627Z,9.01
2023-03-16T11:33:11.637Z,9.10
2023-03-16T11:38:28.471Z,9.35
2023-03-16T11:43:35.819Z,8.85
2023-03-16T11:48:41.439Z,9.15
2023-03-16T11:53:46.104Z,8.88
2023-03-16T11:58:59.691Z,9.05
2023-03-16T12:04:03.969Z,9.07
2023-03-16T12:09:08.423Z,8.99
2023-03-16T12:14:23.821Z,8.86
2023-03-16T12:19:28.275Z,8.84
2023-03-16T12:24:35.289Z,8.68
2023-03-16T12:29:44.624Z,8.84
2023-03-16T12:34:53.676Z,8.61
2023-03-16T12:40:01.058Z,8.82
2023-03-16T12:45:25.793Z,8.69
2023-03-16T12:50:29.080Z,8.74
2023-03-16T12:55:33.211Z,8.72
2023-03-16T13:00:39.417Z,8.92
2023-03-16T13:05:50.552Z,8.91
2023-03-16T13:11:07.958Z,8.88
2023-03-16T13:16:10.141Z,9.11
2023-03-16T13:21:19.234Z,9.10
2023-03-16T13:26:35.843Z,9.04
2023-03-16T13:31:40.397Z,9.19
2023-03-16T13:36:43.984Z,9.23
2023-03-16T13:41:57.355Z,9.28
2023-03-16T13:47:07.781Z,9.41
2023-03-16T13:52:20.297Z,9.59
2023-03-16T13:57:24.063Z,9.46
2023-03-16T14:02:25.418Z,9.60
2023-03-16T14:07:26.822Z,9.66
2023-03-16T14:12:28.268Z,9.65
2023-03-16T14:17:29.744Z,9.60
2023-03-16T14:22:33.431Z,9.48
2023-03-16T14:27:41.193Z,9.64
2023-03-16T14:32:42.588Z,9.61
2023-03-16T14:37:44.112Z,9.42
2023-03-16T14:42:45.566Z,9.56
2023-03-16T14:47:48.083Z,9.56
2023-03-16T14:52:49.975Z,9.43
2023-03-16T14:57:51.548Z,9.29
2023-03-16T15:02:55.907Z,9.43
2023-03-16T15:07:57.241Z,9.47
2023-03-16T15:12:58.608Z,9.38
2023-03-16T15:18:00.003Z,9.52
2023-03-16T15:23:01.675Z,9.41
2023-03-16T15:28:16.882Z,9.47
2023-03-16T15:33:18.543Z,9.50
2023-03-16T15:38:22.627Z,9.54
2023-03-16T15:43:27.081Z,9.30
2023-03-16T15:48:30.923Z,9.24
2023-03-16T15:53:34.669Z,9.29
2023-03-16T15:58:37.846Z,9.26
2023-03-16T16:03:39.203Z,9.33
2023-03-16T16:08:40.671Z,9.30
2023-03-16T16:13:44.952Z,9.26
2023-03-16T16:18:47.316Z,9.35
2023-03-16T16:23:48.768Z,9.16
2023-03-16T16:28:53.392Z,9.14
2023-03-16T16:33:54.793Z,9.03
2023-03-16T16:38:56.247Z,9.19
2023-03-16T16:43:58.033Z,9.12
2023-03-16T16:49:01.138Z,9.11
2023-03-16T16:54:02.681Z,9.07
2023-03-16T16:59:23.861Z,9.04
2023-03-16T17:04:27.065Z,8.98
2023-03-16T17:09:28.563Z,8.91
2023-03-16T17:14:29.988Z,8.97
2023-03-16T17:19:31.387Z,9.03
2023-03-16T17:24:32.778Z,8.92
2023-03-16T17:29:34.198Z,8.98
2023-03-16T17:34:35.556Z,8.99
2023-03-16T17:39:36.950Z,8.92
2023-03-16T17:44:42.570Z,8.86
2023-03-16T17:49:44.089Z,8.84
2023-03-16T17:54:46.420Z,8.83
2023-03-16T17:59:47.961Z,8.80
2023-03-16T18:04:49.336Z,8.94
2023-03-16T18:09:50.713Z,8.76
2023-03-16T18:14:52.171Z,8.79
2023-03-16T18:19:53.798Z,8.88
2023-03-16T18:24:55.245Z,8.68
2023-03-16T18:29:56.615Z,8.66
2023-03-16T18:34:58.050Z,8.81
2023-03-16T18:39:59.441Z,8.78
2023-03-16T18:45:01.145Z,8.79
2023-03-16T18:50:02.625Z,8.74
2023-03-16T18:55:04.235Z,8.72
2023-03-16T19:00:05.994Z,8.74
2023-03-16T19:05:17.687Z,8.71
2023-03-16T19:10:22.140Z,8.63
2023-03-16T19:15:28.488Z,8.61
2023-03-16T19:20:32.202Z,8.60
2023-03-16T19:25:37.671Z,8.56
2023-03-16T19:30:39.198Z,8.61
2023-03-16T19:35:51.115Z,8.53
2023-03-16T19:40:55.877Z,8.60
2023-03-16T19:45:57.410Z,8.27
2023-03-16T19:50:58.873Z,7.88
2023-03-16T19:56:00.356Z,7.39
2023-03-16T20:01:01.800Z,7.38
2023-03-16T20:06:03.253Z,7.25
2023-03-16T20:11:06.625Z,7.10
2023-03-16T20:16:10.263Z,7.02
2023-03-16T20:21:14.763Z,6.71
2023-03-16T20:26:24.571Z,6.61
2023-03-16T20:31:27.065Z,6.56
2023-03-16T20:36:28.929Z,6.45
2023-03-16T20:41:30.901Z,6.35
2023-03-16T20:46:33.010Z,6.26
2023-03-16T20:51:34.373Z,6.15
2023-03-16T20:56:35.728Z,6.14
2023-03-16T21:01:37.243Z,5.96
2023-03-16T21:06:38.641Z,5.91
2023-03-16T21:11:40.789Z,5.79
2023-03-16T21:16:42.523Z,5.78
2023-03-16T21:21:44.156Z,5.79
2023-03-16T21:26:45.781Z,5.62
2023-03-16T21:31:47.229Z,5.61
2023-03-16T21:36:48.603Z,5.69
2023-03-16T21:41:49.994Z,5.53
2023-03-16T21:46:51.586Z,5.44
2023-03-16T21:51:53.037Z,5.57
2023-03-16T21:56:54.402Z,5.56
2023-03-16T22:02:01.860Z,5.09
2023-03-16T22:07:05.825Z,5.19
2023-03-16T22:12:10.121Z,5.29
2023-03-16T22:17:22.165Z,5.03
2023-03-16T22:22:23.655Z,5.12
2023-03-16T22:27:25.020Z,5.07
2023-03-16T22:32:26.425Z,5.34
2023-03-16T22:37:28.329Z,5.22
2023-03-16T22:42:37.084Z,5.10
2023-03-16T22:47:38.530Z,5.11
2023-03-16T22:52:39.986Z,5.06
2023-03-16T22:57:41.573Z,5.14
2023-03-16T23:02:42.941Z,4.97
2023-03-16T23:07:44.345Z,5.04
2023-03-16T23:12:45.949Z,5.10
2023-03-16T23:17:47.385Z,5.04
2023-03-16T23:22:48.890Z,5.13
2023-03-16T23:27:51.693Z,5.14
2023-03-16T23:32:54.326Z,5.39
2023-03-16T23:37:55.884Z,5.47
2023-03-16T23:42:59.854Z,5.39
2023-03-16T23:48:03.571Z,5.09
2023-03-16T23:53:10.301Z,5.09
2023-03-16T23:58:12.110Z,5.15
